sensor_id;sensor_type;location;lat;lon;timestamp;P1;durP1;ratioP1;P2;durP2;ratioP2
59388;SDS011;51830;45.202;19.720;2023-03-23T00:01:54;16.00;;;4.47;;
59388;SDS011;51830;45.202;19.720;2023-03-23T00:04:20;16.02;;;4.22;;
59388;SDS011;51830;45.202;19.720;2023-03-23T00:06:47;16.25;;;5.13;;
59388;SDS011;51830;45.202;19.720;2023-03-23T00:09:14;17.73;;;5.53;;
59388;SDS011;51830;45.202;19.720;2023-03-23T00:11:41;17.27;;;5.45;;
59388;SDS011;51830;45.202;19.720;2023-03-23T00:14:08;18.10;;;5.68;;
59388;SDS011;51830;45.202;19.720;2023-03-23T00:16:40;17.15;;;6.05;;
59388;SDS011;51830;45.202;19.720;2023-03-23T00:19:09;16.25;;;5.53;;
59388;SDS011;51830;45.202;19.720;2023-03-23T00:21:38;15.15;;;4.35;;
59388;SDS011;51830;45.202;19.720;2023-03-23T00:24:08;20.63;;;6.00;;
59388;SDS011;51830;45.202;19.720;2023-03-23T00:26:35;16.88;;;5.30;;
59388;SDS011;51830;45.202;19.720;2023-03-23T00:29:05;20.45;;;7.13;;
59388;SDS011;51830;45.202;19.720;2023-03-23T00:31:32;22.33;;;7.20;;
59388;SDS011;51830;45.202;19.720;2023-03-23T00:34:00;18.95;;;5.38;;
59388;SDS011;51830;45.202;19.720;2023-03-23T00:36:29;16.90;;;5.53;;
59388;SDS011;51830;45.202;19.720;2023-03-23T00:38:56;14.98;;;4.82;;
59388;SDS011;51830;45.202;19.720;2023-03-23T00:41:26;18.52;;;5.53;;
59388;SDS011;51830;45.202;19.720;2023-03-23T00:43:54;15.63;;;4.63;;
59388;SDS011;51830;45.202;19.720;2023-03-23T00:46:20;18.40;;;5.00;;
59388;SDS011;51830;45.202;19.720;2023-03-23T00:48:47;22.73;;;5.10;;
59388;SDS011;51830;45.202;19.720;2023-03-23T00:51:16;14.82;;;4.57;;
59388;SDS011;51830;45.202;19.720;2023-03-23T00:53:43;20.60;;;5.72;;
59388;SDS011;51830;45.202;19.720;2023-03-23T00:56:10;16.75;;;4.78;;
59388;SDS011;51830;45.202;19.720;2023-03-23T00:58:37;14.15;;;4.63;;
59388;SDS011;51830;45.202;19.720;2023-03-23T01:01:04;17.02;;;5.35;;
59388;SDS011;51830;45.202;19.720;2023-03-23T01:03:30;17.23;;;5.60;;
59388;SDS011;51830;45.202;19.720;2023-03-23T01:05:56;15.73;;;5.30;;
59388;SDS011;51830;45.202;19.720;2023-03-23T01:08:23;16.17;;;5.18;;
59388;SDS011;51830;45.202;19.720;2023-03-23T01:10:49;14.50;;;5.20;;
59388;SDS011;51830;45.202;19.720;2023-03-23T01:13:16;15.45;;;4.70;;
59388;SDS011;51830;45.202;19.720;2023-03-23T01:15:42;16.17;;;4.50;;
59388;SDS011;51830;45.202;19.720;2023-03-23T01:18:09;16.35;;;4.55;;
59388;SDS011;51830;45.202;19.720;2023-03-23T01:20:36;14.43;;;3.97;;
59388;SDS011;51830;45.202;19.720;2023-03-23T01:23:03;14.48;;;4.20;;
59388;SDS011;51830;45.202;19.720;2023-03-23T01:25:30;15.90;;;4.22;;
59388;SDS011;51830;45.202;19.720;2023-03-23T01:27:58;15.50;;;4.47;;
59388;SDS011;51830;45.202;19.720;2023-03-23T01:30:25;15.75;;;4.10;;
59388;SDS011;51830;45.202;19.720;2023-03-23T01:32:51;14.65;;;4.70;;
59388;SDS011;51830;45.202;19.720;2023-03-23T01:35:18;16.40;;;4.95;;
59388;SDS011;51830;45.202;19.720;2023-03-23T01:37:44;17.13;;;4.70;;
59388;SDS011;51830;45.202;19.720;2023-03-23T01:40:12;17.75;;;6.20;;
59388;SDS011;51830;45.202;19.720;2023-03-23T01:42:39;18.08;;;6.25;;
59388;SDS011;51830;45.202;19.720;2023-03-23T01:47:52;20.77;;;5.88;;
59388;SDS011;51830;45.202;19.720;2023-03-23T01:50:19;19.97;;;5.43;;
59388;SDS011;51830;45.202;19.720;2023-03-23T01:52:48;14.05;;;4.47;;
59388;SDS011;51830;45.202;19.720;2023-03-23T01:55:16;14.55;;;4.28;;
59388;SDS011;51830;45.202;19.720;2023-03-23T01:57:42;13.77;;;4.03;;
59388;SDS011;51830;45.202;19.720;2023-03-23T02:00:09;17.10;;;4.32;;
59388;SDS011;51830;45.202;19.720;2023-03-23T02:02:42;15.77;;;4.18;;
59388;SDS011;51830;45.202;19.720;2023-03-23T02:05:11;14.32;;;4.07;;
59388;SDS011;51830;45.202;19.720;2023-03-23T02:07:37;11.75;;;3.55;;
59388;SDS011;51830;45.202;19.720;2023-03-23T02:10:04;14.98;;;4.18;;
59388;SDS011;51830;45.202;19.720;2023-03-23T02:12:30;15.85;;;4.22;;
59388;SDS011;51830;45.202;19.720;2023-03-23T02:14:56;14.07;;;4.00;;
59388;SDS011;51830;45.202;19.720;2023-03-23T02:17:35;13.05;;;3.95;;
59388;SDS011;51830;45.202;19.720;2023-03-23T02:23:01;13.52;;;4.03;;
59388;SDS011;51830;45.202;19.720;2023-03-23T02:30:35;13.02;;;4.03;;
59388;SDS011;51830;45.202;19.720;2023-03-23T02:36:04;12.10;;;3.55;;
59388;SDS011;51830;45.202;19.720;2023-03-23T02:41:09;13.57;;;3.85;;
59388;SDS011;51830;45.202;19.720;2023-03-23T02:43:39;13.13;;;4.18;;
59388;SDS011;51830;45.202;19.720;2023-03-23T02:46:06;15.43;;;4.70;;
59388;SDS011;51830;45.202;19.720;2023-03-23T02:48:34;14.07;;;4.55;;
59388;SDS011;51830;45.202;19.720;2023-03-23T02:51:02;14.45;;;3.80;;
59388;SDS011;51830;45.202;19.720;2023-03-23T02:53:29;14.88;;;4.30;;
59388;SDS011;51830;45.202;19.720;2023-03-23T02:55:56;17.10;;;4.88;;
59388;SDS011;51830;45.202;19.720;2023-03-23T02:58:23;14.93;;;5.13;;
59388;SDS011;51830;45.202;19.720;2023-03-23T03:00:50;15.40;;;4.22;;
59388;SDS011;51830;45.202;19.720;2023-03-23T03:03:18;15.50;;;4.85;;
59388;SDS011;51830;45.202;19.720;2023-03-23T03:11:18;16.83;;;4.93;;
59388;SDS011;51830;45.202;19.720;2023-03-23T03:13:48;15.80;;;5.25;;
59388;SDS011;51830;45.202;19.720;2023-03-23T03:18:55;19.08;;;5.50;;
59388;SDS011;51830;45.202;19.720;2023-03-23T03:21:23;16.88;;;5.38;;
59388;SDS011;51830;45.202;19.720;2023-03-23T03:23:53;15.88;;;5.05;;
59388;SDS011;51830;45.202;19.720;2023-03-23T03:26:21;18.83;;;5.50;;
59388;SDS011;51830;45.202;19.720;2023-03-23T03:28:51;17.45;;;4.57;;
59388;SDS011;51830;45.202;19.720;2023-03-23T03:31:19;16.85;;;5.45;;
59388;SDS011;51830;45.202;19.720;2023-03-23T03:33:46;21.10;;;4.80;;
59388;SDS011;51830;45.202;19.720;2023-03-23T03:36:20;15.80;;;4.82;;
59388;SDS011;51830;45.202;19.720;2023-03-23T03:38:49;18.60;;;4.85;;
59388;SDS011;51830;45.202;19.720;2023-03-23T03:41:16;18.05;;;5.10;;
59388;SDS011;51830;45.202;19.720;2023-03-23T03:43:42;18.17;;;5.70;;
59388;SDS011;51830;45.202;19.720;2023-03-23T03:46:08;15.15;;;4.45;;
59388;SDS011;51830;45.202;19.720;2023-03-23T03:48:35;20.15;;;5.03;;
59388;SDS011;51830;45.202;19.720;2023-03-23T03:51:01;18.33;;;4.82;;
59388;SDS011;51830;45.202;19.720;2023-03-23T03:53:28;17.17;;;5.47;;
59388;SDS011;51830;45.202;19.720;2023-03-23T03:55:54;16.05;;;5.25;;
59388;SDS011;51830;45.202;19.720;2023-03-23T03:58:22;15.82;;;4.93;;
59388;SDS011;51830;45.202;19.720;2023-03-23T04:00:49;13.30;;;4.38;;
59388;SDS011;51830;45.202;19.720;2023-03-23T04:03:18;14.27;;;5.03;;
59388;SDS011;51830;45.202;19.720;2023-03-23T04:05:44;31.00;;;4.97;;
59388;SDS011;51830;45.202;19.720;2023-03-23T04:08:11;16.92;;;5.70;;
59388;SDS011;51830;45.202;19.720;2023-03-23T04:10:37;21.27;;;6.07;;
59388;SDS011;51830;45.202;19.720;2023-03-23T04:13:04;15.23;;;4.97;;
59388;SDS011;51830;45.202;19.720;2023-03-23T04:15:30;20.27;;;5.90;;
59388;SDS011;51830;45.202;19.720;2023-03-23T04:17:56;26.23;;;9.82;;
59388;SDS011;51830;45.202;19.720;2023-03-23T04:20:24;22.33;;;7.82;;
59388;SDS011;51830;45.202;19.720;2023-03-23T04:22:51;18.75;;;7.35;;
59388;SDS011;51830;45.202;19.720;2023-03-23T04:25:20;16.90;;;6.43;;
59388;SDS011;51830;45.202;19.720;2023-03-23T04:27:47;17.63;;;6.32;;
59388;SDS011;51830;45.202;19.720;2023-03-23T04:30:18;28.58;;;10.07;;
59388;SDS011;51830;45.202;19.720;2023-03-23T04:32:44;31.65;;;12.80;;
59388;SDS011;51830;45.202;19.720;2023-03-23T04:35:12;66.70;;;27.35;;
59388;SDS011;51830;45.202;19.720;2023-03-23T04:37:39;75.55;;;25.00;;
59388;SDS011;51830;45.202;19.720;2023-03-23T04:40:08;37.90;;;11.93;;
59388;SDS011;51830;45.202;19.720;2023-03-23T04:42:37;46.50;;;18.73;;
59388;SDS011;51830;45.202;19.720;2023-03-23T04:45:04;52.85;;;19.05;;
59388;SDS011;51830;45.202;19.720;2023-03-23T04:47:32;41.30;;;16.75;;
59388;SDS011;51830;45.202;19.720;2023-03-23T04:49:59;35.33;;;13.70;;
59388;SDS011;51830;45.202;19.720;2023-03-23T04:52:26;33.05;;;11.52;;
59388;SDS011;51830;45.202;19.720;2023-03-23T04:54:54;28.27;;;10.73;;
59388;SDS011;51830;45.202;19.720;2023-03-23T04:57:23;30.67;;;11.80;;
59388;SDS011;51830;45.202;19.720;2023-03-23T04:59:53;30.67;;;12.65;;
59388;SDS011;51830;45.202;19.720;2023-03-23T05:02:19;22.75;;;9.43;;
59388;SDS011;51830;45.202;19.720;2023-03-23T05:04:45;22.98;;;8.55;;
59388;SDS011;51830;45.202;19.720;2023-03-23T05:07:12;22.67;;;8.80;;
59388;SDS011;51830;45.202;19.720;2023-03-23T05:09:38;29.63;;;11.13;;
59388;SDS011;51830;45.202;19.720;2023-03-23T05:12:05;21.70;;;9.02;;
59388;SDS011;51830;45.202;19.720;2023-03-23T05:14:31;24.83;;;9.85;;
59388;SDS011;51830;45.202;19.720;2023-03-23T05:16:57;23.45;;;10.55;;
59388;SDS011;51830;45.202;19.720;2023-03-23T05:19:24;21.88;;;8.05;;
59388;SDS011;51830;45.202;19.720;2023-03-23T05:21:50;25.02;;;9.13;;
59388;SDS011;51830;45.202;19.720;2023-03-23T05:24:16;27.20;;;11.93;;
59388;SDS011;51830;45.202;19.720;2023-03-23T05:26:42;30.80;;;12.13;;
59388;SDS011;51830;45.202;19.720;2023-03-23T05:29:09;36.63;;;11.85;;
59388;SDS011;51830;45.202;19.720;2023-03-23T05:31:36;27.48;;;11.23;;
59388;SDS011;51830;45.202;19.720;2023-03-23T05:34:02;34.47;;;13.25;;
59388;SDS011;51830;45.202;19.720;2023-03-23T05:36:29;37.80;;;17.58;;
59388;SDS011;51830;45.202;19.720;2023-03-23T05:38:56;30.20;;;13.05;;
59388;SDS011;51830;45.202;19.720;2023-03-23T05:41:25;41.83;;;19.52;;
59388;SDS011;51830;45.202;19.720;2023-03-23T05:43:51;34.30;;;14.40;;
59388;SDS011;51830;45.202;19.720;2023-03-23T05:46:18;33.20;;;15.02;;
59388;SDS011;51830;45.202;19.720;2023-03-23T05:48:44;37.45;;;15.75;;
59388;SDS011;51830;45.202;19.720;2023-03-23T05:51:10;32.67;;;14.38;;
59388;SDS011;51830;45.202;19.720;2023-03-23T05:53:37;29.38;;;13.55;;
59388;SDS011;51830;45.202;19.720;2023-03-23T05:56:03;31.90;;;13.48;;
59388;SDS011;51830;45.202;19.720;2023-03-23T05:58:30;30.50;;;11.55;;
59388;SDS011;51830;45.202;19.720;2023-03-23T06:00:56;26.58;;;11.48;;
59388;SDS011;51830;45.202;19.720;2023-03-23T06:03:22;25.35;;;11.20;;
59388;SDS011;51830;45.202;19.720;2023-03-23T06:05:49;25.88;;;11.27;;
59388;SDS011;51830;45.202;19.720;2023-03-23T06:08:15;74.97;;;30.52;;
59388;SDS011;51830;45.202;19.720;2023-03-23T06:10:42;95.72;;;38.78;;
59388;SDS011;51830;45.202;19.720;2023-03-23T06:13:09;65.90;;;30.85;;
59388;SDS011;51830;45.202;19.720;2023-03-23T06:15:35;89.90;;;37.20;;
59388;SDS011;51830;45.202;19.720;2023-03-23T06:18:02;152.55;;;51.33;;
59388;SDS011;51830;45.202;19.720;2023-03-23T06:20:29;97.82;;;39.58;;
59388;SDS011;51830;45.202;19.720;2023-03-23T06:22:55;45.28;;;21.98;;
59388;SDS011;51830;45.202;19.720;2023-03-23T06:25:21;32.92;;;15.20;;
59388;SDS011;51830;45.202;19.720;2023-03-23T06:27:48;23.77;;;9.68;;
59388;SDS011;51830;45.202;19.720;2023-03-23T06:30:17;22.17;;;9.40;;
59388;SDS011;51830;45.202;19.720;2023-03-23T06:32:43;21.65;;;7.80;;
59388;SDS011;51830;45.202;19.720;2023-03-23T06:35:12;21.95;;;8.15;;
59388;SDS011;51830;45.202;19.720;2023-03-23T06:37:39;20.27;;;7.30;;
59388;SDS011;51830;45.202;19.720;2023-03-23T06:40:05;19.98;;;7.20;;
59388;SDS011;51830;45.202;19.720;2023-03-23T06:42:32;16.98;;;6.03;;
59388;SDS011;51830;45.202;19.720;2023-03-23T06:44:58;19.42;;;5.72;;
59388;SDS011;51830;45.202;19.720;2023-03-23T06:47:29;15.43;;;5.25;;
59388;SDS011;51830;45.202;19.720;2023-03-23T06:49:56;14.70;;;4.57;;
59388;SDS011;51830;45.202;19.720;2023-03-23T06:52:22;17.58;;;5.43;;
59388;SDS011;51830;45.202;19.720;2023-03-23T06:54:49;16.33;;;5.05;;
59388;SDS011;51830;45.202;19.720;2023-03-23T06:57:15;16.15;;;4.70;;
59388;SDS011;51830;45.202;19.720;2023-03-23T06:59:42;18.25;;;4.70;;
59388;SDS011;51830;45.202;19.720;2023-03-23T07:02:11;14.90;;;4.47;;
59388;SDS011;51830;45.202;19.720;2023-03-23T07:04:39;15.15;;;4.47;;
59388;SDS011;51830;45.202;19.720;2023-03-23T07:07:07;16.52;;;4.75;;
59388;SDS011;51830;45.202;19.720;2023-03-23T07:09:33;15.10;;;4.50;;
59388;SDS011;51830;45.202;19.720;2023-03-23T07:11:59;15.90;;;4.65;;
59388;SDS011;51830;45.202;19.720;2023-03-23T07:14:26;14.85;;;3.88;;
59388;SDS011;51830;45.202;19.720;2023-03-23T07:16:52;16.05;;;4.05;;
59388;SDS011;51830;45.202;19.720;2023-03-23T07:19:18;19.17;;;6.30;;
59388;SDS011;51830;45.202;19.720;2023-03-23T07:21:45;52.40;;;18.65;;
59388;SDS011;51830;45.202;19.720;2023-03-23T07:24:12;34.58;;;12.43;;
59388;SDS011;51830;45.202;19.720;2023-03-23T07:26:39;19.60;;;6.70;;
59388;SDS011;51830;45.202;19.720;2023-03-23T07:29:07;19.60;;;6.82;;
59388;SDS011;51830;45.202;19.720;2023-03-23T07:31:33;20.90;;;6.05;;
59388;SDS011;51830;45.202;19.720;2023-03-23T07:33:59;16.40;;;4.75;;
59388;SDS011;51830;45.202;19.720;2023-03-23T07:36:26;14.80;;;4.53;;
59388;SDS011;51830;45.202;19.720;2023-03-23T07:38:52;16.33;;;6.00;;
59388;SDS011;51830;45.202;19.720;2023-03-23T07:41:20;18.98;;;6.18;;
59388;SDS011;51830;45.202;19.720;2023-03-23T07:43:46;14.40;;;4.07;;
59388;SDS011;51830;45.202;19.720;2023-03-23T07:46:13;15.75;;;4.93;;
59388;SDS011;51830;45.202;19.720;2023-03-23T07:48:40;14.07;;;3.70;;
59388;SDS011;51830;45.202;19.720;2023-03-23T07:51:06;15.20;;;4.38;;
59388;SDS011;51830;45.202;19.720;2023-03-23T07:53:33;14.55;;;4.00;;
59388;SDS011;51830;45.202;19.720;2023-03-23T07:56:00;14.52;;;4.18;;
59388;SDS011;51830;45.202;19.720;2023-03-23T07:58:27;14.20;;;3.70;;
59388;SDS011;51830;45.202;19.720;2023-03-23T08:00:53;13.90;;;4.15;;
59388;SDS011;51830;45.202;19.720;2023-03-23T08:03:22;14.13;;;4.13;;
59388;SDS011;51830;45.202;19.720;2023-03-23T08:05:49;13.50;;;3.88;;
59388;SDS011;51830;45.202;19.720;2023-03-23T08:08:15;15.05;;;4.00;;
59388;SDS011;51830;45.202;19.720;2023-03-23T08:10:41;13.20;;;3.75;;
59388;SDS011;51830;45.202;19.720;2023-03-23T08:13:07;17.55;;;4.13;;
59388;SDS011;51830;45.202;19.720;2023-03-23T08:15:34;17.02;;;4.88;;
59388;SDS011;51830;45.202;19.720;2023-03-23T08:18:02;14.93;;;4.38;;
59388;SDS011;51830;45.202;19.720;2023-03-23T08:20:29;15.13;;;4.20;;
59388;SDS011;51830;45.202;19.720;2023-03-23T08:22:56;15.70;;;4.43;;
59388;SDS011;51830;45.202;19.720;2023-03-23T08:25:23;15.40;;;4.43;;
59388;SDS011;51830;45.202;19.720;2023-03-23T08:27:51;16.10;;;3.70;;
59388;SDS011;51830;45.202;19.720;2023-03-23T08:30:18;14.88;;;4.03;;
59388;SDS011;51830;45.202;19.720;2023-03-23T08:32:45;14.82;;;4.05;;
59388;SDS011;51830;45.202;19.720;2023-03-23T08:35:12;13.20;;;3.70;;
59388;SDS011;51830;45.202;19.720;2023-03-23T08:37:40;15.25;;;3.95;;
59388;SDS011;51830;45.202;19.720;2023-03-23T08:40:06;14.63;;;3.58;;
59388;SDS011;51830;45.202;19.720;2023-03-23T08:42:35;14.70;;;4.10;;
59388;SDS011;51830;45.202;19.720;2023-03-23T08:45:03;13.93;;;3.40;;
59388;SDS011;51830;45.202;19.720;2023-03-23T08:47:29;16.42;;;4.25;;
59388;SDS011;51830;45.202;19.720;2023-03-23T08:49:56;14.02;;;3.70;;
59388;SDS011;51830;45.202;19.720;2023-03-23T08:52:22;15.00;;;3.90;;
59388;SDS011;51830;45.202;19.720;2023-03-23T08:54:48;11.82;;;3.30;;
59388;SDS011;51830;45.202;19.720;2023-03-23T08:57:14;11.07;;;2.80;;
59388;SDS011;51830;45.202;19.720;2023-03-23T08:59:41;10.63;;;2.80;;
59388;SDS011;51830;45.202;19.720;2023-03-23T09:02:10;12.10;;;3.10;;
59388;SDS011;51830;45.202;19.720;2023-03-23T09:04:37;9.38;;;2.80;;
59388;SDS011;51830;45.202;19.720;2023-03-23T09:07:04;11.75;;;3.10;;
59388;SDS011;51830;45.202;19.720;2023-03-23T09:09:30;12.23;;;3.35;;
59388;SDS011;51830;45.202;19.720;2023-03-23T09:11:59;13.32;;;3.45;;
59388;SDS011;51830;45.202;19.720;2023-03-23T09:14:25;11.07;;;3.03;;
59388;SDS011;51830;45.202;19.720;2023-03-23T09:16:52;12.73;;;3.38;;
59388;SDS011;51830;45.202;19.720;2023-03-23T09:19:18;10.70;;;2.97;;
59388;SDS011;51830;45.202;19.720;2023-03-23T09:21:45;10.93;;;2.85;;
59388;SDS011;51830;45.202;19.720;2023-03-23T09:24:11;9.73;;;2.90;;
59388;SDS011;51830;45.202;19.720;2023-03-23T09:26:37;11.80;;;2.95;;
59388;SDS011;51830;45.202;19.720;2023-03-23T09:29:04;13.05;;;3.35;;
59388;SDS011;51830;45.202;19.720;2023-03-23T09:31:30;10.88;;;3.03;;
59388;SDS011;51830;45.202;19.720;2023-03-23T09:33:56;13.65;;;3.15;;
59388;SDS011;51830;45.202;19.720;2023-03-23T09:36:23;13.18;;;3.20;;
59388;SDS011;51830;45.202;19.720;2023-03-23T09:38:51;13.40;;;3.13;;
59388;SDS011;51830;45.202;19.720;2023-03-23T09:44:02;12.63;;;3.42;;
59388;SDS011;51830;45.202;19.720;2023-03-23T09:46:33;13.38;;;3.75;;
59388;SDS011;51830;45.202;19.720;2023-03-23T09:49:03;12.15;;;3.25;;
59388;SDS011;51830;45.202;19.720;2023-03-23T09:51:47;11.98;;;3.17;;
59388;SDS011;51830;45.202;19.720;2023-03-23T09:59:16;12.65;;;3.30;;
59388;SDS011;51830;45.202;19.720;2023-03-23T10:01:44;12.93;;;3.28;;
59388;SDS011;51830;45.202;19.720;2023-03-23T10:04:14;13.50;;;3.80;;
59388;SDS011;51830;45.202;19.720;2023-03-23T10:06:42;14.15;;;4.10;;
59388;SDS011;51830;45.202;19.720;2023-03-23T10:09:09;13.20;;;3.60;;
59388;SDS011;51830;45.202;19.720;2023-03-23T10:16:33;13.50;;;3.70;;
59388;SDS011;51830;45.202;19.720;2023-03-23T10:21:35;13.63;;;3.63;;
59388;SDS011;51830;45.202;19.720;2023-03-23T10:24:04;13.73;;;3.58;;
59388;SDS011;51830;45.202;19.720;2023-03-23T10:31:34;12.85;;;3.83;;
59388;SDS011;51830;45.202;19.720;2023-03-23T10:34:04;14.98;;;4.05;;
59388;SDS011;51830;45.202;19.720;2023-03-23T10:36:36;14.38;;;3.90;;
59388;SDS011;51830;45.202;19.720;2023-03-23T10:41:35;16.00;;;3.85;;
59388;SDS011;51830;45.202;19.720;2023-03-23T10:44:01;16.17;;;4.72;;
59388;SDS011;51830;45.202;19.720;2023-03-23T10:46:44;15.05;;;4.35;;
59388;SDS011;51830;45.202;19.720;2023-03-23T10:49:25;12.85;;;3.30;;
59388;SDS011;51830;45.202;19.720;2023-03-23T10:52:01;13.65;;;3.90;;
59388;SDS011;51830;45.202;19.720;2023-03-23T10:54:35;13.80;;;4.13;;
59388;SDS011;51830;45.202;19.720;2023-03-23T10:57:11;13.48;;;3.65;;
59388;SDS011;51830;45.202;19.720;2023-03-23T10:59:39;12.95;;;3.83;;
59388;SDS011;51830;45.202;19.720;2023-03-23T11:02:13;13.52;;;4.03;;
59388;SDS011;51830;45.202;19.720;2023-03-23T11:04:41;15.60;;;3.50;;
59388;SDS011;51830;45.202;19.720;2023-03-23T11:07:15;14.07;;;3.92;;
59388;SDS011;51830;45.202;19.720;2023-03-23T11:09:53;13.15;;;3.78;;
59388;SDS011;51830;45.202;19.720;2023-03-23T11:12:20;13.43;;;3.45;;
59388;SDS011;51830;45.202;19.720;2023-03-23T11:14:48;14.52;;;3.90;;
59388;SDS011;51830;45.202;19.720;2023-03-23T11:17:22;14.20;;;3.92;;
59388;SDS011;51830;45.202;19.720;2023-03-23T11:19:49;15.40;;;4.22;;
59388;SDS011;51830;45.202;19.720;2023-03-23T11:22:26;14.88;;;3.97;;
59388;SDS011;51830;45.202;19.720;2023-03-23T11:24:55;14.57;;;4.35;;
59388;SDS011;51830;45.202;19.720;2023-03-23T11:27:23;14.65;;;3.45;;
59388;SDS011;51830;45.202;19.720;2023-03-23T11:29:56;12.40;;;3.63;;
59388;SDS011;51830;45.202;19.720;2023-03-23T11:32:26;14.65;;;4.15;;
59388;SDS011;51830;45.202;19.720;2023-03-23T11:34:54;13.30;;;3.63;;
59388;SDS011;51830;45.202;19.720;2023-03-23T11:40:43;12.93;;;3.60;;
59388;SDS011;51830;45.202;19.720;2023-03-23T11:53:54;15.88;;;4.18;;
59388;SDS011;51830;45.202;19.720;2023-03-23T11:58:26;17.63;;;3.97;;
59388;SDS011;51830;45.202;19.720;2023-03-23T12:01:11;15.00;;;3.58;;
59388;SDS011;51830;45.202;19.720;2023-03-23T12:03:50;13.27;;;4.00;;
59388;SDS011;51830;45.202;19.720;2023-03-23T12:07:01;13.38;;;3.67;;
59388;SDS011;51830;45.202;19.720;2023-03-23T12:22:51;15.45;;;3.97;;
59388;SDS011;51830;45.202;19.720;2023-03-23T12:25:30;17.98;;;4.97;;
59388;SDS011;51830;45.202;19.720;2023-03-23T12:28:18;15.07;;;4.50;;
59388;SDS011;51830;45.202;19.720;2023-03-23T12:31:31;18.30;;;6.35;;
59388;SDS011;51830;45.202;19.720;2023-03-23T12:33:40;16.02;;;4.50;;
59388;SDS011;51830;45.202;19.720;2023-03-23T12:36:21;17.23;;;5.45;;
59388;SDS011;51830;45.202;19.720;2023-03-23T12:44:05;13.57;;;3.92;;
59388;SDS011;51830;45.202;19.720;2023-03-23T12:46:39;11.40;;;3.33;;
59388;SDS011;51830;45.202;19.720;2023-03-23T12:59:45;13.80;;;3.33;;
59388;SDS011;51830;45.202;19.720;2023-03-23T13:02:27;14.32;;;3.78;;
59388;SDS011;51830;45.202;19.720;2023-03-23T13:05:41;11.90;;;3.33;;
59388;SDS011;51830;45.202;19.720;2023-03-23T13:07:44;14.52;;;4.13;;
59388;SDS011;51830;45.202;19.720;2023-03-23T13:10:25;13.48;;;3.63;;
59388;SDS011;51830;45.202;19.720;2023-03-23T13:12:53;12.98;;;3.80;;
59388;SDS011;51830;45.202;19.720;2023-03-23T13:23:04;13.05;;;3.63;;
59388;SDS011;51830;45.202;19.720;2023-03-23T13:28:01;14.63;;;3.70;;
59388;SDS011;51830;45.202;19.720;2023-03-23T13:30:28;13.57;;;3.65;;
59388;SDS011;51830;45.202;19.720;2023-03-23T13:33:04;12.68;;;3.50;;
59388;SDS011;51830;45.202;19.720;2023-03-23T13:35:35;14.38;;;3.83;;
59388;SDS011;51830;45.202;19.720;2023-03-23T13:38:18;13.60;;;3.50;;
59388;SDS011;51830;45.202;19.720;2023-03-23T13:40:45;14.32;;;3.60;;
59388;SDS011;51830;45.202;19.720;2023-03-23T13:43:11;16.75;;;4.40;;
59388;SDS011;51830;45.202;19.720;2023-03-23T13:45:47;13.05;;;3.63;;
59388;SDS011;51830;45.202;19.720;2023-03-23T13:50:59;13.93;;;3.55;;
59388;SDS011;51830;45.202;19.720;2023-03-23T13:53:30;14.23;;;3.78;;
59388;SDS011;51830;45.202;19.720;2023-03-23T13:58:51;15.50;;;3.50;;
59388;SDS011;51830;45.202;19.720;2023-03-23T14:01:42;11.75;;;3.33;;
59388;SDS011;51830;45.202;19.720;2023-03-23T14:04:14;11.13;;;3.22;;
59388;SDS011;51830;45.202;19.720;2023-03-23T14:06:41;14.65;;;3.67;;
59388;SDS011;51830;45.202;19.720;2023-03-23T14:09:19;15.07;;;3.63;;
59388;SDS011;51830;45.202;19.720;2023-03-23T14:14:25;14.50;;;3.65;;
59388;SDS011;51830;45.202;19.720;2023-03-23T14:16:53;11.35;;;3.25;;
59388;SDS011;51830;45.202;19.720;2023-03-23T14:19:30;14.27;;;3.60;;
59388;SDS011;51830;45.202;19.720;2023-03-23T14:21:58;13.25;;;3.55;;
59388;SDS011;51830;45.202;19.720;2023-03-23T14:24:29;15.00;;;3.75;;
59388;SDS011;51830;45.202;19.720;2023-03-23T14:29:33;13.48;;;3.95;;
59388;SDS011;51830;45.202;19.720;2023-03-23T14:32:00;13.23;;;3.72;;
59388;SDS011;51830;45.202;19.720;2023-03-23T14:34:30;11.88;;;3.17;;
59388;SDS011;51830;45.202;19.720;2023-03-23T14:36:58;14.23;;;3.75;;
59388;SDS011;51830;45.202;19.720;2023-03-23T14:39:26;12.88;;;3.63;;
59388;SDS011;51830;45.202;19.720;2023-03-23T14:41:54;12.13;;;3.65;;
59388;SDS011;51830;45.202;19.720;2023-03-23T14:44:26;14.20;;;3.70;;
59388;SDS011;51830;45.202;19.720;2023-03-23T14:46:54;16.25;;;3.22;;
59388;SDS011;51830;45.202;19.720;2023-03-23T14:49:25;13.40;;;3.42;;
59388;SDS011;51830;45.202;19.720;2023-03-23T14:51:54;12.00;;;3.15;;
59388;SDS011;51830;45.202;19.720;2023-03-23T14:54:27;14.30;;;3.65;;
59388;SDS011;51830;45.202;19.720;2023-03-23T14:56:54;13.43;;;3.75;;
59388;SDS011;51830;45.202;19.720;2023-03-23T14:59:21;13.90;;;3.78;;
59388;SDS011;51830;45.202;19.720;2023-03-23T15:01:47;11.65;;;3.00;;
59388;SDS011;51830;45.202;19.720;2023-03-23T15:04:16;14.13;;;3.33;;
59388;SDS011;51830;45.202;19.720;2023-03-23T15:06:43;14.50;;;3.65;;
59388;SDS011;51830;45.202;19.720;2023-03-23T15:09:14;13.98;;;4.15;;
59388;SDS011;51830;45.202;19.720;2023-03-23T15:11:43;12.63;;;3.17;;
59388;SDS011;51830;45.202;19.720;2023-03-23T15:14:20;16.63;;;3.58;;
59388;SDS011;51830;45.202;19.720;2023-03-23T15:16:48;13.02;;;3.42;;
59388;SDS011;51830;45.202;19.720;2023-03-23T15:19:40;12.05;;;3.33;;
59388;SDS011;51830;45.202;19.720;2023-03-23T15:22:12;14.65;;;3.30;;
59388;SDS011;51830;45.202;19.720;2023-03-23T15:24:40;12.50;;;3.17;;
59388;SDS011;51830;45.202;19.720;2023-03-23T15:27:11;11.95;;;3.17;;
59388;SDS011;51830;45.202;19.720;2023-03-23T15:29:47;13.02;;;3.50;;
59388;SDS011;51830;45.202;19.720;2023-03-23T15:32:19;11.73;;;3.30;;
59388;SDS011;51830;45.202;19.720;2023-03-23T15:34:45;13.23;;;3.50;;
59388;SDS011;51830;45.202;19.720;2023-03-23T15:37:19;11.85;;;3.22;;
59388;SDS011;51830;45.202;19.720;2023-03-23T15:39:46;13.18;;;3.65;;
59388;SDS011;51830;45.202;19.720;2023-03-23T15:42:26;14.48;;;4.05;;
59388;SDS011;51830;45.202;19.720;2023-03-23T15:44:57;11.02;;;3.10;;
59388;SDS011;51830;45.202;19.720;2023-03-23T15:47:32;12.50;;;3.50;;
59388;SDS011;51830;45.202;19.720;2023-03-23T15:50:04;14.02;;;3.72;;
59388;SDS011;51830;45.202;19.720;2023-03-23T15:52:33;12.35;;;3.28;;
59388;SDS011;51830;45.202;19.720;2023-03-23T15:54:59;12.68;;;3.10;;
59388;SDS011;51830;45.202;19.720;2023-03-23T15:57:25;16.10;;;3.85;;
59388;SDS011;51830;45.202;19.720;2023-03-23T15:59:52;13.13;;;3.17;;
59388;SDS011;51830;45.202;19.720;2023-03-23T16:02:20;11.88;;;3.47;;
59388;SDS011;51830;45.202;19.720;2023-03-23T16:04:47;13.95;;;3.38;;
59388;SDS011;51830;45.202;19.720;2023-03-23T16:07:14;15.13;;;3.25;;
59388;SDS011;51830;45.202;19.720;2023-03-23T16:09:40;10.98;;;3.25;;
59388;SDS011;51830;45.202;19.720;2023-03-23T16:12:15;15.20;;;4.00;;
59388;SDS011;51830;45.202;19.720;2023-03-23T16:14:41;16.02;;;4.45;;
59388;SDS011;51830;45.202;19.720;2023-03-23T16:17:09;19.40;;;4.88;;
59388;SDS011;51830;45.202;19.720;2023-03-23T16:19:38;19.33;;;5.22;;
59388;SDS011;51830;45.202;19.720;2023-03-23T16:22:04;20.38;;;4.88;;
59388;SDS011;51830;45.202;19.720;2023-03-23T16:24:30;15.90;;;4.30;;